Time,TemperatureF,DewpointF,PressureIn,WindDirection,WindDirectionDegrees,WindSpeedMPH,WindSpeedGustMPH,Humidity,HourlyPrecipIn,Conditions,Clouds,dailyrainin,SoftwareType,DateUTC
2013-06-02 00:01:00,64.3,64.0,29.79,SE,133,0.0,0.0,99,0.00,,,0.04,Wunderground v.1.15,2013-06-02 04:01:00,
2013-06-02 00:02:00,64.2,63.9,29.79,SE,133,0.0,0.0,99,0.00,,,0.04,Wunderground v.1.15,2013-06-02 04:02:00,
2013-06-02 00:04:00,64.2,63.9,29.79,SE,133,0.0,0.0,99,0.00,,,0.04,Wunderground v.1.15,2013-06-02 04:04:00,
2013-06-02 00:05:00,64.1,63.8,29.79,SE,133,0.0,0.0,99,0.00,,,0.04,Wunderground v.1.15,2013-06-02 04:05:00,
2013-06-02 00:11:00,63.9,63.6,29.79,SE,133,0.0,0.0,99,0.00,,,0.04,Wunderground v.1.15,2013-06-02 04:11:00,
2013-06-02 00:17:00,63.7,63.4,29.79,SE,133,0.0,0.0,99,0.00,,,0.04,Wunderground v.1.15,2013-06-02 04:17:00,
2013-06-02 00:23:00,63.7,63.4,29.79,SE,133,0.0,0.0,99,0.00,,,0.04,Wunderground v.1.15,2013-06-02 04:23:00,
2013-06-02 00:29:00,63.8,63.5,29.79,SE,133,0.0,0.0,99,0.00,,,0.04,Wunderground v.1.15,2013-06-02 04:29:00,
2013-06-02 00:35:00,63.5,63.2,29.78,SE,133,0.0,0.0,99,0.00,,,0.04,Wunderground v.1.15,2013-06-02 04:35:00,
2013-06-02 00:41:00,63.5,63.2,29.78,SE,133,0.0,0.0,99,0.00,,,0.04,Wunderground v.1.15,2013-06-02 04:41:00,
2013-06-02 00:47:00,63.4,63.1,29.78,SE,133,0.0,0.0,99,0.00,,,0.04,Wunderground v.1.15,2013-06-02 04:47:00,
2013-06-02 00:53:00,63.6,63.3,29.78,SE,133,0.0,0.0,99,0.00,,,0.04,Wunderground v.1.15,2013-06-02 04:53:00,
2013-06-02 00:58:00,63.6,63.3,29.78,SE,133,0.0,0.0,99,0.00,,,0.04,Wunderground v.1.15,2013-06-02 04:58:00,
2013-06-02 01:04:00,63.6,63.3,29.78,SE,133,0.0,0.0,99,0.00,,,0.00,Wunderground v.1.15,2013-06-02 05:04:00,
2013-06-02 01:09:00,63.7,63.4,29.78,SE,133,0.0,0.0,99,0.00,,,0.00,Wunderground v.1.15,2013-06-02 05:09:00,
2013-06-02 01:15:00,63.7,63.4,29.78,ENE,71,0.0,0.0,99,0.00,,,0.00,Wunderground v.1.15,2013-06-02 05:15:00,
2013-06-02 01:20:00,63.8,63.5,29.78,ENE,71,0.0,0.0,99,0.00,,,0.00,Wunderground v.1.15,2013-06-02 05:20:00,
2013-06-02 01:26:00,63.9,63.6,29.78,ENE,71,0.0,0.0,99,0.00,,,0.00,Wunderground v.1.15,2013-06-02 05:26:00,
2013-06-02 01:32:00,63.9,63.6,29.78,ENE,71,0.0,0.0,99,0.00,,,0.00,Wunderground v.1.15,2013-06-02 05:32:00,
2013-06-02 01:37:00,64.1,63.8,29.78,ENE,71,0.0,0.0,99,0.00,,,0.00,Wunderground v.1.15,2013-06-02 05:37:00,
2013-06-02 01:43:00,64.4,64.1,29.78,ENE,73,0.0,0.0,99,0.00,,,0.00,Wunderground v.1.15,2013-06-02 05:43:00,
2013-06-02 01:48:00,64.6,64.3,29.78,ENE,73,0.0,0.0,99,0.00,,,0.00,Wunderground v.1.15,2013-06-02 05:48:00,
2013-06-02 01:53:00,64.7,64.4,29.78,ENE,72,0.0,0.0,99,0.00,,,0.00,Wunderground v.1.15,2013-06-02 05:53:00,
2013-06-02 01:59:00,65.0,64.7,29.79,SE,126,0.0,0.0,99,0.00,,,0.00,Wunderground v.1.15,2013-06-02 05:59:00,
2013-06-02 02:04:00,65.0,64.7,29.78,ESE,121,0.0,2.0,99,0.00,,,0.00,Wunderground v.1.15,2013-06-02 06:04:00,
2013-06-02 02:10:00,65.1,64.8,29.79,ESE,121,0.0,2.0,99,0.00,,,0.00,Wunderground v.1.15,2013-06-02 06:10:00,
2013-06-02 02:16:00,65.3,65.0,29.79,NNE,26,0.0,2.0,99,0.00,,,0.00,Wunderground v.1.15,2013-06-02 06:16:00,
2013-06-02 02:21:00,65.6,65.3,29.79,NNE,28,0.0,2.0,99,0.00,,,0.00,Wunderground v.1.15,2013-06-02 06:21:00,
2013-06-02 02:27:00,65.9,65.6,29.79,NNE,28,0.0,2.0,99,0.00,,,0.00,Wunderground v.1.15,2013-06-02 06:27:00,
2013-06-02 02:32:00,65.9,65.6,29.79,NNE,28,0.0,2.0,99,0.00,,,0.00,Wunderground v.1.15,2013-06-02 06:32:00,
2013-06-02 02:38:00,66.1,65.8,29.79,SSE,160,0.0,2.0,99,0.00,,,0.00,Wunderground v.1.15,2013-06-02 06:38:00,
2013-06-02 02:44:00,66.3,66.0,29.79,SSE,161,0.0,2.0,99,0.00,,,0.00,Wunderground v.1.15,2013-06-02 06:44:00,
2013-06-02 02:49:00,66.5,66.2,29.80,SSE,161,0.0,2.0,99,0.00,,,0.00,Wunderground v.1.15,2013-06-02 06:49:00,
2013-06-02 02:54:00,66.7,66.4,29.79,SSE,161,0.0,2.0,99,0.00,,,0.00,Wunderground v.1.15,2013-06-02 06:54:00,
2013-06-02 03:00:00,67.1,66.5,29.80,SSE,161,0.0,0.0,98,0.00,,,0.00,Wunderground v.1.15,2013-06-02 07:00:00,
2013-06-02 03:06:00,67.7,66.8,29.79,SE,130,1.0,8.0,97,0.00,,,0.00,Wunderground v.1.15,2013-06-02 07:06:00,
2013-06-02 03:12:00,69.2,66.8,29.79,SE,142,4.0,5.0,92,0.00,,,0.00,Wunderground v.1.15,2013-06-02 07:12:00,
2013-06-02 03:18:00,70.5,67.1,29.79,SSE,165,4.0,7.0,89,0.00,,,0.00,Wunderground v.1.15,2013-06-02 07:18:00,
2013-06-02 03:23:00,71.2,67.1,29.79,North,355,3.0,4.0,87,0.00,,,0.00,Wunderground v.1.15,2013-06-02 07:23:00,
2013-06-02 03:29:00,71.7,67.3,29.79,ENE,65,2.0,4.0,86,0.00,,,0.00,Wunderground v.1.15,2013-06-02 07:29:00,
2013-06-02 03:35:00,72.0,67.2,29.79,South,180,3.0,5.0,85,0.00,,,0.00,Wunderground v.1.15,2013-06-02 07:35:00,
2013-06-02 03:41:00,72.0,67.2,29.79,ESE,115,2.0,6.0,85,0.00,,,0.00,Wunderground v.1.15,2013-06-02 07:41:00,
2013-06-02 03:47:00,72.1,67.3,29.79,SSE,150,2.0,6.0,85,0.00,,,0.00,Wunderground v.1.15,2013-06-02 07:47:00,
2013-06-02 03:53:00,72.0,67.2,29.78,ESE,114,2.0,4.0,85,0.00,,,0.00,Wunderground v.1.15,2013-06-02 07:53:00,
2013-06-02 03:59:00,71.4,67.0,29.78,SE,136,0.0,4.0,86,0.00,,,0.00,Wunderground v.1.15,2013-06-02 07:59:00,
2013-06-02 04:05:00,70.5,66.8,29.79,SE,142,1.0,10.0,88,0.00,,,0.00,Wunderground v.1.15,2013-06-02 08:05:00,
2013-06-02 04:11:00,70.1,66.7,29.78,ESE,110,1.0,10.0,89,0.00,,,0.00,Wunderground v.1.15,2013-06-02 08:11:00,
2013-06-02 04:17:00,69.9,67.2,29.79,SE,134,1.0,10.0,91,0.00,,,0.00,Wunderground v.1.15,2013-06-02 08:17:00,
2013-06-02 04:23:00,69.7,67.0,29.79,SE,134,1.0,10.0,91,0.00,,,0.00,Wunderground v.1.15,2013-06-02 08:23:00,
2013-06-02 04:29:00,69.5,67.1,29.78,SE,127,0.0,10.0,92,0.00,,,0.00,Wunderground v.1.15,2013-06-02 08:29:00,
2013-06-02 04:35:00,69.2,66.8,29.78,NE,36,0.0,10.0,92,0.00,,,0.00,Wunderground v.1.15,2013-06-02 08:35:00,
2013-06-02 04:41:00,68.9,67.1,29.79,NE,36,0.0,10.0,94,0.00,,,0.00,Wunderground v.1.15,2013-06-02 08:41:00,
2013-06-02 04:46:00,68.6,66.8,29.79,NE,36,0.0,10.0,94,0.00,,,0.00,Wunderground v.1.15,2013-06-02 08:46:00,
2013-06-02 04:52:00,68.2,66.7,29.78,NE,36,0.0,10.0,95,0.00,,,0.00,Wunderground v.1.15,2013-06-02 08:52:00,
2013-06-02 04:58:00,67.9,66.7,29.78,ENE,58,0.0,10.0,96,0.00,,,0.00,Wunderground v.1.15,2013-06-02 08:58:00,
2013-06-02 05:04:00,67.6,66.7,29.78,ENE,58,0.0,6.0,97,0.00,,,0.00,Wunderground v.1.15,2013-06-02 09:04:00,
2013-06-02 05:09:00,67.5,66.6,29.79,ESE,111,0.0,6.0,97,0.00,,,0.00,Wunderground v.1.15,2013-06-02 09:09:00,
2013-06-02 05:15:00,67.5,66.6,29.79,North,360,1.0,6.0,97,0.00,,,0.00,Wunderground v.1.15,2013-06-02 09:15:00,
2013-06-02 05:20:00,67.5,66.6,29.79,NNE,32,1.0,1.0,97,0.00,,,0.00,Wunderground v.1.15,2013-06-02 09:20:00,
2013-06-02 05:26:00,67.7,66.8,29.79,NNE,32,1.0,6.0,97,0.00,,,0.00,Wunderground v.1.15,2013-06-02 09:26:00,
2013-06-02 05:32:00,67.6,66.7,29.79,NNE,32,0.0,6.0,97,0.00,,,0.00,Wunderground v.1.15,2013-06-02 09:32:00,
2013-06-02 05:38:00,67.5,66.6,29.79,NNE,32,0.0,6.0,97,0.00,,,0.00,Wunderground v.1.15,2013-06-02 09:38:00,
2013-06-02 05:44:00,67.4,66.5,29.80,NNE,32,0.0,6.0,97,0.00,,,0.00,Wunderground v.1.15,2013-06-02 09:44:00,
2013-06-02 05:49:00,67.5,66.6,29.80,East,83,1.0,6.0,97,0.00,,,0.00,Wunderground v.1.15,2013-06-02 09:49:00,
2013-06-02 05:55:00,68.0,67.1,29.80,SE,140,2.0,6.0,97,0.00,,,0.00,Wunderground v.1.15,2013-06-02 09:55:00,
2013-06-02 06:00:00,68.6,67.4,29.80,SE,139,4.0,4.0,96,0.00,,,0.01,Wunderground v.1.15,2013-06-02 10:00:00,
2013-06-02 06:06:00,68.8,67.3,29.81,SSW,205,4.0,16.0,95,0.08,,,0.02,Wunderground v.1.15,2013-06-02 10:06:00,
2013-06-02 06:11:00,68.9,67.4,29.80,SSE,152,3.0,16.0,95,0.08,,,0.02,Wunderground v.1.15,2013-06-02 10:11:00,
2013-06-02 06:17:00,68.8,67.3,29.80,NE,49,3.0,16.0,95,0.30,,,0.05,Wunderground v.1.15,2013-06-02 10:17:00,
2013-06-02 06:22:00,68.5,67.0,29.81,South,178,3.0,16.0,95,0.09,,,0.05,Wunderground v.1.15,2013-06-02 10:22:00,
2013-06-02 06:27:00,68.4,66.9,29.80,SE,137,4.0,16.0,95,0.05,,,0.05,Wunderground v.1.15,2013-06-02 10:27:00,
2013-06-02 06:33:00,68.2,67.0,29.81,SE,136,3.0,16.0,96,0.00,,,0.05,Wunderground v.1.15,2013-06-02 10:33:00,
2013-06-02 06:39:00,68.1,66.9,29.81,SSE,155,3.0,16.0,96,0.00,,,0.05,Wunderground v.1.15,2013-06-02 10:39:00,
2013-06-02 06:44:00,68.0,67.1,29.81,SSE,148,3.0,16.0,97,0.00,,,0.05,Wunderground v.1.15,2013-06-02 10:44:00,
2013-06-02 06:50:00,68.0,67.1,29.81,SSE,152,2.0,16.0,97,0.00,,,0.06,Wunderground v.1.15,2013-06-02 10:50:00,
2013-06-02 06:56:00,67.9,67.0,29.81,SE,142,2.0,16.0,97,0.00,,,0.06,Wunderground v.1.15,2013-06-02 10:56:00,
2013-06-02 07:01:00,67.9,67.0,29.82,SSE,148,3.0,10.0,97,0.00,,,0.06,Wunderground v.1.15,2013-06-02 11:01:00,
2013-06-02 07:07:00,67.9,67.0,29.82,SSE,167,2.0,10.0,97,0.00,,,0.06,Wunderground v.1.15,2013-06-02 11:07:00,
2013-06-02 07:13:00,67.9,67.0,29.82,SSE,150,1.0,10.0,97,0.00,,,0.06,Wunderground v.1.15,2013-06-02 11:13:00,
2013-06-02 07:19:00,67.9,67.3,29.82,South,188,2.0,10.0,98,0.00,,,0.06,Wunderground v.1.15,2013-06-02 11:19:00,
2013-06-02 07:25:00,67.9,67.3,29.82,SE,144,3.0,10.0,98,0.00,,,0.06,Wunderground v.1.15,2013-06-02 11:25:00,
2013-06-02 07:30:00,67.9,67.3,29.82,South,182,3.0,3.0,98,0.00,,,0.06,Wunderground v.1.15,2013-06-02 11:30:00,
2013-06-02 07:36:00,67.9,67.3,29.82,South,188,3.0,10.0,98,0.00,,,0.06,Wunderground v.1.15,2013-06-02 11:36:00,
2013-06-02 07:42:00,67.9,67.3,29.82,South,184,3.0,10.0,98,0.00,,,0.06,Wunderground v.1.15,2013-06-02 11:42:00,
2013-06-02 07:47:00,68.0,67.4,29.82,SE,141,2.0,10.0,98,0.00,,,0.06,Wunderground v.1.15,2013-06-02 11:47:00,
2013-06-02 07:53:00,68.0,67.4,29.82,SE,144,2.0,10.0,98,0.00,,,0.06,Wunderground v.1.15,2013-06-02 11:53:00,
2013-06-02 07:59:00,68.1,67.5,29.82,SE,143,2.0,10.0,98,0.00,,,0.06,Wunderground v.1.15,2013-06-02 11:59:00,
2013-06-02 08:05:00,68.3,67.7,29.83,SE,136,2.0,13.0,98,0.00,,,0.06,Wunderground v.1.15,2013-06-02 12:05:00,
2013-06-02 08:10:00,68.4,67.8,29.82,SSE,165,2.0,13.0,98,0.00,,,0.06,Wunderground v.1.15,2013-06-02 12:10:00,
2013-06-02 08:16:00,68.5,67.9,29.83,SE,137,3.0,13.0,98,0.00,,,0.06,Wunderground v.1.15,2013-06-02 12:16:00,
2013-06-02 08:22:00,68.8,68.2,29.82,SSE,167,3.0,13.0,98,0.00,,,0.06,Wunderground v.1.15,2013-06-02 12:22:00,
2013-06-02 08:28:00,69.0,68.1,29.82,SE,133,2.0,13.0,97,0.00,,,0.06,Wunderground v.1.15,2013-06-02 12:28:00,
2013-06-02 08:34:00,69.2,68.3,29.83,East,85,2.0,13.0,97,0.00,,,0.06,Wunderground v.1.15,2013-06-02 12:34:00,
2013-06-02 08:40:00,69.2,68.3,29.83,ESE,116,1.0,1.0,97,0.00,,,0.06,Wunderground v.1.15,2013-06-02 12:40:00,
2013-06-02 08:45:00,69.3,68.4,29.83,South,177,1.0,13.0,97,0.00,,,0.06,Wunderground v.1.15,2013-06-02 12:45:00,
2013-06-02 08:51:00,69.3,68.1,29.83,SE,126,2.0,13.0,96,0.00,,,0.06,Wunderground v.1.15,2013-06-02 12:51:00,
2013-06-02 08:57:00,69.5,68.3,29.83,ESE,106,1.0,13.0,96,0.00,,,0.06,Wunderground v.1.15,2013-06-02 12:57:00,
2013-06-02 09:02:00,69.8,68.6,29.82,SSE,162,3.0,11.0,96,0.00,,,0.06,Wunderground v.1.15,2013-06-02 13:02:00,
2013-06-02 09:08:00,69.8,68.3,29.83,SSE,168,3.0,11.0,95,0.00,,,0.06,Wunderground v.1.15,2013-06-02 13:08:00,
2013-06-02 09:14:00,69.9,68.4,29.83,SE,137,1.0,11.0,95,0.00,,,0.06,Wunderground v.1.15,2013-06-02 13:14:00,
2013-06-02 09:20:00,69.9,68.4,29.83,South,173,2.0,2.0,95,0.00,,,0.06,Wunderground v.1.15,2013-06-02 13:20:00,
2013-06-02 09:26:00,69.9,68.1,29.83,South,171,3.0,11.0,94,0.00,,,0.06,Wunderground v.1.15,2013-06-02 13:26:00,
2013-06-02 09:32:00,70.5,69.0,29.83,SE,142,2.0,11.0,95,0.00,,,0.06,Wunderground v.1.15,2013-06-02 13:32:00,
2013-06-02 09:38:00,71.0,68.9,29.83,SSE,148,2.0,11.0,93,0.00,,,0.06,Wunderground v.1.15,2013-06-02 13:38:00,
2013-06-02 09:44:00,71.3,68.9,29.83,ESE,115,2.0,11.0,92,0.00,,,0.06,Wunderground v.1.15,2013-06-02 13:44:00,
2013-06-02 09:50:00,71.6,68.8,29.83,East,94,3.0,3.0,91,0.00,,,0.06,Wunderground v.1.15,2013-06-02 13:50:00,
2013-06-02 09:56:00,72.1,69.3,29.83,WNW,290,3.0,11.0,91,0.00,,,0.06,Wunderground v.1.15,2013-06-02 13:56:00,
2013-06-02 10:02:00,72.1,68.7,29.83,South,191,2.0,11.0,89,0.00,,,0.06,Wunderground v.1.15,2013-06-02 14:02:00,
2013-06-02 10:08:00,71.3,68.2,29.83,SSW,202,2.0,11.0,90,0.00,,,0.06,Wunderground v.1.15,2013-06-02 14:08:00,
2013-06-02 10:14:00,70.9,67.8,29.83,West,281,2.0,11.0,90,0.00,,,0.06,Wunderground v.1.15,2013-06-02 14:14:00,
2013-06-02 10:19:00,70.8,67.7,29.83,West,268,1.0,11.0,90,0.00,,,0.06,Wunderground v.1.15,2013-06-02 14:19:00,
2013-06-02 10:25:00,70.5,66.8,29.83,NNW,337,2.0,11.0,88,0.00,,,0.06,Wunderground v.1.15,2013-06-02 14:25:00,
2013-06-02 10:31:00,70.2,66.1,29.83,North,5,2.0,11.0,87,0.00,,,0.06,Wunderground v.1.15,2013-06-02 14:31:00,
2013-06-02 10:37:00,70.7,66.6,29.84,ENE,75,1.0,11.0,87,0.00,,,0.06,Wunderground v.1.15,2013-06-02 14:37:00,
2013-06-02 10:43:00,72.8,68.7,29.84,SE,142,1.0,11.0,87,0.00,,,0.06,Wunderground v.1.15,2013-06-02 14:43:00,
2013-06-02 10:48:00,73.0,67.5,29.84,East,96,3.0,11.0,83,0.00,,,0.06,Wunderground v.1.15,2013-06-02 14:48:00,
2013-06-02 10:54:00,73.3,67.5,29.84,South,169,4.0,11.0,82,0.00,,,0.06,Wunderground v.1.15,2013-06-02 14:54:00,
2013-06-02 11:00:00,73.5,68.4,29.84,ESE,106,5.0,5.0,84,0.00,,,0.06,Wunderground v.1.15,2013-06-02 15:00:00,
2013-06-02 11:06:00,74.3,68.8,29.84,SW,221,3.0,13.0,83,0.00,,,0.06,Wunderground v.1.15,2013-06-02 15:06:00,
2013-06-02 11:12:00,75.0,69.1,29.84,SSW,206,2.0,13.0,82,0.00,,,0.06,Wunderground v.1.15,2013-06-02 15:12:00,
2013-06-02 11:18:00,75.0,68.8,29.84,NW,325,3.0,13.0,81,0.00,,,0.06,Wunderground v.1.15,2013-06-02 15:18:00,
2013-06-02 11:24:00,74.9,68.3,29.84,NE,41,4.0,13.0,80,0.00,,,0.06,Wunderground v.1.15,2013-06-02 15:24:00,
2013-06-02 11:30:00,74.4,68.2,29.85,South,176,4.0,13.0,81,0.00,,,0.06,Wunderground v.1.15,2013-06-02 15:30:00,
2013-06-02 11:35:00,73.8,66.9,29.85,South,182,4.0,13.0,79,0.00,,,0.06,Wunderground v.1.15,2013-06-02 15:35:00,
2013-06-02 11:41:00,75.1,69.2,29.85,SW,217,3.0,13.0,82,0.00,,,0.06,Wunderground v.1.15,2013-06-02 15:41:00,
2013-06-02 11:47:00,75.5,67.0,29.85,SSE,152,2.0,13.0,75,0.00,,,0.06,Wunderground v.1.15,2013-06-02 15:47:00,
2013-06-02 11:53:00,75.7,67.6,29.85,South,190,3.0,13.0,76,0.00,,,0.06,Wunderground v.1.15,2013-06-02 15:53:00,
2013-06-02 11:59:00,75.4,67.7,29.85,ESE,117,3.0,13.0,77,0.00,,,0.06,Wunderground v.1.15,2013-06-02 15:59:00,
2013-06-02 12:04:00,76.2,68.1,29.85,SSW,192,4.0,12.0,76,0.00,,,0.06,Wunderground v.1.15,2013-06-02 16:04:00,
2013-06-02 12:10:00,76.3,67.8,29.85,SSW,200,5.0,12.0,75,0.00,,,0.06,Wunderground v.1.15,2013-06-02 16:10:00,
2013-06-02 12:16:00,76.5,68.4,29.84,SE,141,6.0,12.0,76,0.00,,,0.06,Wunderground v.1.15,2013-06-02 16:16:00,
2013-06-02 12:21:00,77.0,67.7,29.85,NE,49,4.0,12.0,73,0.00,,,0.06,Wunderground v.1.15,2013-06-02 16:21:00,
2013-06-02 12:27:00,77.4,67.7,29.84,WNW,302,3.0,12.0,72,0.00,,,0.06,Wunderground v.1.15,2013-06-02 16:27:00,
2013-06-02 12:33:00,76.9,68.8,29.84,WNW,300,3.0,12.0,76,0.00,,,0.06,Wunderground v.1.15,2013-06-02 16:33:00,
2013-06-02 12:39:00,77.3,68.0,29.84,NE,42,1.0,12.0,73,0.00,,,0.06,Wunderground v.1.15,2013-06-02 16:39:00,
2013-06-02 12:45:00,76.6,66.5,29.85,South,190,3.0,12.0,71,0.00,,,0.06,Wunderground v.1.15,2013-06-02 16:45:00,
2013-06-02 12:51:00,75.7,65.6,29.85,South,170,5.0,12.0,71,0.00,,,0.06,Wunderground v.1.15,2013-06-02 16:51:00,
2013-06-02 12:57:00,76.4,66.3,29.84,NE,40,5.0,12.0,71,0.00,,,0.06,Wunderground v.1.15,2013-06-02 16:57:00,
2013-06-02 13:02:00,76.6,66.9,29.84,SSE,168,4.0,17.0,72,0.00,,,0.06,Wunderground v.1.15,2013-06-02 17:02:00,
2013-06-02 13:07:00,76.5,67.2,29.84,SE,146,5.0,17.0,73,0.00,,,0.06,Wunderground v.1.15,2013-06-02 17:07:00,
2013-06-02 13:12:00,76.5,68.0,29.84,NNW,336,5.0,17.0,75,0.00,,,0.06,Wunderground v.1.15,2013-06-02 17:12:00,
2013-06-02 13:17:00,76.5,66.0,29.84,South,191,3.0,17.0,70,0.00,,,0.06,Wunderground v.1.15,2013-06-02 17:17:00,
2013-06-02 13:23:00,77.3,68.4,29.84,South,180,3.0,17.0,74,0.00,,,0.06,Wunderground v.1.15,2013-06-02 17:23:00,
2013-06-02 13:29:00,77.4,66.8,29.84,SE,132,3.0,17.0,70,0.00,,,0.06,Wunderground v.1.15,2013-06-02 17:29:00,
2013-06-02 13:34:00,76.8,66.3,29.84,SSE,147,6.0,17.0,70,0.00,,,0.06,Wunderground v.1.15,2013-06-02 17:34:00,
2013-06-02 13:40:00,77.1,67.4,29.83,SE,142,6.0,17.0,72,0.00,,,0.06,Wunderground v.1.15,2013-06-02 17:40:00,
2013-06-02 13:46:00,77.4,66.4,29.83,North,360,3.0,17.0,69,0.00,,,0.06,Wunderground v.1.15,2013-06-02 17:46:00,
2013-06-02 13:52:00,77.7,67.5,29.83,SSE,163,2.0,17.0,71,0.00,,,0.06,Wunderground v.1.15,2013-06-02 17:52:00,
2013-06-02 13:58:00,77.8,66.4,29.83,SW,223,3.0,17.0,68,0.00,,,0.06,Wunderground v.1.15,2013-06-02 17:58:00,
2013-06-02 14:04:00,77.4,66.4,29.83,SSE,153,4.0,23.0,69,0.00,,,0.06,Wunderground v.1.15,2013-06-02 18:04:00,
2013-06-02 14:10:00,77.1,66.1,29.83,SSE,168,7.0,23.0,69,0.00,,,0.06,Wunderground v.1.15,2013-06-02 18:10:00,
2013-06-02 14:16:00,77.0,64.8,29.82,East,82,5.0,23.0,66,0.00,,,0.06,Wunderground v.1.15,2013-06-02 18:16:00,
2013-06-02 14:21:00,77.1,66.1,29.82,NNE,26,2.0,23.0,69,0.00,,,0.06,Wunderground v.1.15,2013-06-02 18:21:00,
2013-06-02 14:27:00,77.1,66.1,29.83,SE,132,3.0,23.0,69,0.00,,,0.06,Wunderground v.1.15,2013-06-02 18:27:00,
2013-06-02 14:33:00,77.1,66.1,29.83,NE,49,3.0,23.0,69,0.00,,,0.06,Wunderground v.1.15,2013-06-02 18:33:00,
2013-06-02 14:39:00,77.2,66.2,29.83,WNW,292,3.0,23.0,69,0.00,,,0.06,Wunderground v.1.15,2013-06-02 18:39:00,
2013-06-02 14:45:00,77.3,66.3,29.83,NE,49,4.0,23.0,69,0.00,,,0.06,Wunderground v.1.15,2013-06-02 18:45:00,
2013-06-02 14:50:00,77.4,66.8,29.83,SSW,205,4.0,4.0,70,0.00,,,0.06,Wunderground v.1.15,2013-06-02 18:50:00,
2013-06-02 14:56:00,77.5,67.4,29.83,SSE,161,4.0,23.0,71,0.00,,,0.06,Wunderground v.1.15,2013-06-02 18:56:00,
2013-06-02 15:01:00,77.6,66.2,29.83,SSW,198,3.0,5.0,68,0.00,,,0.06,Wunderground v.1.15,2013-06-02 19:01:00,
2013-06-02 15:07:00,77.8,66.4,29.83,SSE,159,2.0,15.0,68,0.00,,,0.06,Wunderground v.1.15,2013-06-02 19:07:00,
2013-06-02 15:13:00,77.1,64.9,29.83,NNW,340,3.0,15.0,66,0.00,,,0.06,Wunderground v.1.15,2013-06-02 19:13:00,
2013-06-02 15:18:00,77.0,66.5,29.83,NNE,24,4.0,15.0,70,0.00,,,0.06,Wunderground v.1.15,2013-06-02 19:18:00,
2013-06-02 15:24:00,77.3,65.9,29.83,SSW,202,3.0,15.0,68,0.00,,,0.06,Wunderground v.1.15,2013-06-02 19:24:00,
2013-06-02 15:30:00,76.9,66.0,29.82,NNE,19,2.0,2.0,69,0.00,,,0.06,Wunderground v.1.15,2013-06-02 19:30:00,
2013-06-02 15:36:00,76.7,66.2,29.83,South,186,3.0,15.0,70,0.00,,,0.06,Wunderground v.1.15,2013-06-02 19:36:00,
2013-06-02 15:42:00,76.7,66.2,29.83,SSE,149,3.0,15.0,70,0.00,,,0.06,Wunderground v.1.15,2013-06-02 19:42:00,
2013-06-02 15:47:00,76.6,65.7,29.82,SE,136,3.0,15.0,69,0.00,,,0.06,Wunderground v.1.15,2013-06-02 19:47:00,
2013-06-02 15:53:00,76.7,67.0,29.83,SE,134,3.0,15.0,72,0.00,,,0.06,Wunderground v.1.15,2013-06-02 19:53:00,
2013-06-02 15:59:00,76.6,65.7,29.83,SE,130,3.0,15.0,69,0.00,,,0.06,Wunderground v.1.15,2013-06-02 19:59:00,
2013-06-02 16:05:00,76.9,67.2,29.82,East,88,2.0,13.0,72,0.00,,,0.06,Wunderground v.1.15,2013-06-02 20:05:00,
2013-06-02 16:11:00,76.6,65.7,29.82,SSW,203,3.0,13.0,69,0.00,,,0.06,Wunderground v.1.15,2013-06-02 20:11:00,
2013-06-02 16:16:00,76.4,65.9,29.82,SE,140,4.0,13.0,70,0.00,,,0.06,Wunderground v.1.15,2013-06-02 20:16:00,
2013-06-02 16:22:00,76.2,66.1,29.82,SE,136,4.0,13.0,71,0.00,,,0.06,Wunderground v.1.15,2013-06-02 20:22:00,
2013-06-02 16:28:00,76.1,66.0,29.82,SSE,161,2.0,13.0,71,0.00,,,0.06,Wunderground v.1.15,2013-06-02 20:28:00,
2013-06-02 16:34:00,76.0,64.7,29.82,SSW,205,1.0,13.0,68,0.00,,,0.06,Wunderground v.1.15,2013-06-02 20:34:00,
2013-06-02 16:40:00,76.0,65.5,29.81,SSE,165,2.0,13.0,70,0.00,,,0.06,Wunderground v.1.15,2013-06-02 20:40:00,
2013-06-02 16:46:00,76.2,66.1,29.82,WNW,285,2.0,13.0,71,0.00,,,0.06,Wunderground v.1.15,2013-06-02 20:46:00,
2013-06-02 16:51:00,76.1,66.4,29.81,SSE,154,2.0,13.0,72,0.00,,,0.06,Wunderground v.1.15,2013-06-02 20:51:00,
2013-06-02 16:56:00,75.9,67.0,29.81,South,173,2.0,13.0,74,0.00,,,0.06,Wunderground v.1.15,2013-06-02 20:56:00,
2013-06-02 17:01:00,75.9,67.0,29.81,SSE,156,2.0,12.0,74,0.00,,,0.06,Wunderground v.1.15,2013-06-02 21:01:00,
2013-06-02 17:07:00,75.9,67.0,29.81,East,80,1.0,12.0,74,0.00,,,0.06,Wunderground v.1.15,2013-06-02 21:07:00,
2013-06-02 17:13:00,75.5,66.6,29.80,SSE,152,3.0,12.0,74,0.00,,,0.06,Wunderground v.1.15,2013-06-02 21:13:00,
2013-06-02 17:19:00,75.3,66.0,29.80,NNE,19,2.0,12.0,73,0.00,,,0.06,Wunderground v.1.15,2013-06-02 21:19:00,
2013-06-02 17:25:00,75.2,67.1,29.80,South,171,1.0,12.0,76,0.00,,,0.06,Wunderground v.1.15,2013-06-02 21:25:00,
2013-06-02 17:30:00,75.0,66.1,29.80,SSE,152,3.0,3.0,74,0.00,,,0.06,Wunderground v.1.15,2013-06-02 21:30:00,
2013-06-02 17:36:00,75.0,66.9,29.80,West,276,3.0,12.0,76,0.00,,,0.06,Wunderground v.1.15,2013-06-02 21:36:00,
2013-06-02 17:41:00,74.9,66.8,29.80,ESE,108,2.0,4.0,76,0.00,,,0.06,Wunderground v.1.15,2013-06-02 21:41:00,
2013-06-02 17:46:00,74.6,66.9,29.80,SSE,160,2.0,12.0,77,0.00,,,0.06,Wunderground v.1.15,2013-06-02 21:46:00,
2013-06-02 17:52:00,74.2,66.1,29.80,South,179,3.0,12.0,76,0.00,,,0.06,Wunderground v.1.15,2013-06-02 21:52:00,
2013-06-02 17:58:00,74.0,66.7,29.79,SSE,150,3.0,12.0,78,0.00,,,0.06,Wunderground v.1.15,2013-06-02 21:58:00,
2013-06-02 18:03:00,73.8,66.5,29.79,SE,138,2.0,8.0,78,0.00,,,0.06,Wunderground v.1.15,2013-06-02 22:03:00,
2013-06-02 18:09:00,73.8,66.5,29.79,NE,55,2.0,8.0,78,0.00,,,0.06,Wunderground v.1.15,2013-06-02 22:09:00,
2013-06-02 18:14:00,73.8,66.1,29.80,South,176,1.0,8.0,77,0.00,,,0.06,Wunderground v.1.15,2013-06-02 22:14:00,
2013-06-02 18:20:00,73.7,66.8,29.80,South,173,1.0,8.0,79,0.00,,,0.06,Wunderground v.1.15,2013-06-02 22:20:00,
2013-06-02 18:26:00,73.5,66.6,29.80,NW,305,1.0,8.0,79,0.00,,,0.06,Wunderground v.1.15,2013-06-02 22:26:00,
2013-06-02 18:32:00,73.4,66.5,29.80,SW,214,1.0,8.0,79,0.00,,,0.06,Wunderground v.1.15,2013-06-02 22:32:00,
2013-06-02 18:37:00,73.2,66.3,29.80,SSE,149,1.0,8.0,79,0.00,,,0.06,Wunderground v.1.15,2013-06-02 22:37:00,
2013-06-02 18:43:00,73.0,67.5,29.80,SSE,149,1.0,8.0,83,0.00,,,0.06,Wunderground v.1.15,2013-06-02 22:43:00,
2013-06-02 18:49:00,72.7,67.2,29.80,East,92,0.0,8.0,83,0.00,,,0.06,Wunderground v.1.15,2013-06-02 22:49:00,
2013-06-02 18:54:00,72.5,67.4,29.80,East,92,0.0,8.0,84,0.00,,,0.06,Wunderground v.1.15,2013-06-02 22:54:00,
2013-06-02 19:00:00,72.6,67.1,29.80,East,83,0.0,0.0,83,0.00,,,0.06,Wunderground v.1.15,2013-06-02 23:00:00,
2013-06-02 19:06:00,72.5,66.7,29.80,East,83,0.0,4.0,82,0.00,,,0.06,Wunderground v.1.15,2013-06-02 23:06:00,
2013-06-02 19:12:00,72.5,66.3,29.80,ENE,63,0.0,4.0,81,0.00,,,0.06,Wunderground v.1.15,2013-06-02 23:12:00,
2013-06-02 19:17:00,72.6,68.2,29.81,ENE,63,0.0,4.0,86,0.00,,,0.06,Wunderground v.1.15,2013-06-02 23:17:00,
2013-06-02 19:22:00,72.1,66.3,29.81,SE,130,0.0,4.0,82,0.00,,,0.06,Wunderground v.1.15,2013-06-02 23:22:00,
2013-06-02 19:28:00,71.9,66.1,29.81,SE,130,0.0,4.0,82,0.00,,,0.06,Wunderground v.1.15,2013-06-02 23:28:00,
2013-06-02 19:33:00,71.9,66.5,29.82,SE,129,0.0,4.0,83,0.00,,,0.06,Wunderground v.1.15,2013-06-02 23:33:00,
2013-06-02 19:39:00,71.7,66.9,29.82,SE,130,0.0,4.0,85,0.00,,,0.06,Wunderground v.1.15,2013-06-02 23:39:00,
2013-06-02 19:45:00,71.7,66.6,29.82,SE,130,0.0,4.0,84,0.00,,,0.06,Wunderground v.1.15,2013-06-02 23:45:00,
2013-06-02 19:50:00,71.6,67.5,29.82,SE,130,0.0,4.0,87,0.00,,,0.06,Wunderground v.1.15,2013-06-02 23:50:00,
2013-06-02 19:56:00,71.0,66.9,29.82,SE,129,0.0,4.0,87,0.00,,,0.06,Wunderground v.1.15,2013-06-02 23:56:00,
2013-06-02 20:01:00,70.7,66.6,29.82,SSE,150,0.0,4.0,87,0.00,,,0.06,Wunderground v.1.15,2013-06-03 00:01:00,
2013-06-02 20:07:00,70.6,66.5,29.82,SSE,149,0.0,4.0,87,0.00,,,0.06,Wunderground v.1.15,2013-06-03 00:07:00,
2013-06-02 20:13:00,70.3,66.9,29.82,SSE,150,0.0,4.0,89,0.00,,,0.06,Wunderground v.1.15,2013-06-03 00:13:00,
2013-06-02 20:19:00,69.9,66.8,29.82,SSE,149,0.0,4.0,90,0.00,,,0.06,Wunderground v.1.15,2013-06-03 00:19:00,
2013-06-02 20:25:00,69.5,66.8,29.82,SSE,150,0.0,4.0,91,0.00,,,0.06,Wunderground v.1.15,2013-06-03 00:25:00,
2013-06-02 20:30:00,69.2,66.5,29.82,SSE,149,0.0,4.0,91,0.00,,,0.06,Wunderground v.1.15,2013-06-03 00:30:00,
2013-06-02 20:36:00,68.7,66.3,29.82,SSE,150,0.0,4.0,92,0.00,,,0.06,Wunderground v.1.15,2013-06-03 00:36:00,
2013-06-02 20:42:00,68.4,66.0,29.82,SSE,149,0.0,4.0,92,0.00,,,0.06,Wunderground v.1.15,2013-06-03 00:42:00,
2013-06-02 20:48:00,68.0,66.2,29.82,SSE,149,0.0,4.0,94,0.00,,,0.06,Wunderground v.1.15,2013-06-03 00:48:00,
2013-06-02 20:54:00,67.6,65.8,29.83,SSE,149,0.0,4.0,94,0.00,,,0.06,Wunderground v.1.15,2013-06-03 00:54:00,
2013-06-02 21:00:00,67.2,65.4,29.83,SSE,150,0.0,3.0,94,0.00,,,0.06,Wunderground v.1.15,2013-06-03 01:00:00,
2013-06-02 21:06:00,66.8,65.3,29.83,SSE,149,0.0,3.0,95,0.00,,,0.06,Wunderground v.1.15,2013-06-03 01:06:00,
2013-06-02 21:12:00,66.5,65.0,29.83,SSE,150,0.0,3.0,95,0.00,,,0.06,Wunderground v.1.15,2013-06-03 01:12:00,
2013-06-02 21:18:00,66.1,64.9,29.84,SSE,150,0.0,3.0,96,0.00,,,0.06,Wunderground v.1.15,2013-06-03 01:18:00,
2013-06-02 21:24:00,65.8,64.6,29.84,SSE,150,0.0,3.0,96,0.00,,,0.06,Wunderground v.1.15,2013-06-03 01:24:00,
2013-06-02 21:30:00,65.2,64.0,29.84,SSE,149,0.0,3.0,96,0.00,,,0.06,Wunderground v.1.15,2013-06-03 01:30:00,
2013-06-02 21:36:00,65.0,64.1,29.84,SSE,149,0.0,3.0,97,0.00,,,0.06,Wunderground v.1.15,2013-06-03 01:36:00,
2013-06-02 21:42:00,64.8,63.9,29.85,SSE,150,0.0,3.0,97,0.00,,,0.06,Wunderground v.1.15,2013-06-03 01:42:00,
2013-06-02 21:47:00,64.7,63.8,29.85,SSE,150,0.0,3.0,97,0.00,,,0.06,Wunderground v.1.15,2013-06-03 01:47:00,
2013-06-02 21:53:00,64.6,63.7,29.85,SSE,150,0.0,3.0,97,0.00,,,0.06,Wunderground v.1.15,2013-06-03 01:53:00,
2013-06-02 21:58:00,64.3,63.4,29.85,SSE,150,0.0,3.0,97,0.00,,,0.06,Wunderground v.1.15,2013-06-03 01:58:00,
2013-06-02 22:04:00,64.0,63.1,29.85,SSE,149,0.0,1.0,97,0.00,,,0.06,Wunderground v.1.15,2013-06-03 02:04:00,
2013-06-02 22:09:00,63.7,62.8,29.85,SSE,150,0.0,1.0,97,0.00,,,0.06,Wunderground v.1.15,2013-06-03 02:09:00,
2013-06-02 22:15:00,63.3,62.7,29.85,SSE,150,0.0,1.0,98,0.00,,,0.06,Wunderground v.1.15,2013-06-03 02:15:00,
2013-06-02 22:20:00,63.0,62.4,29.86,SSE,150,0.0,1.0,98,0.00,,,0.06,Wunderground v.1.15,2013-06-03 02:20:00,
2013-06-02 22:26:00,62.8,62.2,29.85,SSE,149,0.0,1.0,98,0.00,,,0.06,Wunderground v.1.15,2013-06-03 02:26:00,
2013-06-02 22:32:00,62.6,62.0,29.85,SSE,149,0.0,1.0,98,0.00,,,0.06,Wunderground v.1.15,2013-06-03 02:32:00,
2013-06-02 22:38:00,62.4,62.1,29.85,SSE,150,0.0,1.0,99,0.00,,,0.06,Wunderground v.1.15,2013-06-03 02:38:00,
2013-06-02 22:43:00,62.4,62.1,29.85,SSE,149,0.0,1.0,99,0.00,,,0.06,Wunderground v.1.15,2013-06-03 02:43:00,
2013-06-02 22:49:00,62.1,61.5,29.85,SSE,150,0.0,1.0,98,0.00,,,0.06,Wunderground v.1.15,2013-06-03 02:49:00,
2013-06-02 22:54:00,62.0,61.7,29.85,SSE,150,0.0,1.0,99,0.00,,,0.06,Wunderground v.1.15,2013-06-03 02:54:00,
2013-06-02 23:00:00,61.7,61.4,29.85,SSE,150,0.0,0.0,99,0.00,,,0.06,Wunderground v.1.15,2013-06-03 03:00:00,
2013-06-02 23:06:00,61.6,61.3,29.85,SSE,149,0.0,1.0,99,0.00,,,0.06,Wunderground v.1.15,2013-06-03 03:06:00,
2013-06-02 23:12:00,61.5,61.2,29.85,SSE,149,0.0,1.0,99,0.00,,,0.06,Wunderground v.1.15,2013-06-03 03:12:00,
2013-06-02 23:18:00,61.8,61.5,29.85,SSE,160,0.0,1.0,99,0.00,,,0.06,Wunderground v.1.15,2013-06-03 03:18:00,
2013-06-02 23:24:00,61.8,61.5,29.86,SE,146,0.0,1.0,99,0.00,,,0.06,Wunderground v.1.15,2013-06-03 03:24:00,
2013-06-02 23:30:00,62.3,62.0,29.86,SE,146,0.0,1.0,99,0.00,,,0.06,Wunderground v.1.15,2013-06-03 03:30:00,
2013-06-02 23:35:00,62.9,62.6,29.85,SE,145,0.0,1.0,99,0.00,,,0.06,Wunderground v.1.15,2013-06-03 03:35:00,
2013-06-02 23:41:00,63.3,63.0,29.85,SE,146,0.0,1.0,99,0.00,,,0.06,Wunderground v.1.15,2013-06-03 03:41:00,
2013-06-02 23:46:00,63.5,63.2,29.85,SE,145,0.0,1.0,99,0.00,,,0.06,Wunderground v.1.15,2013-06-03 03:46:00,
2013-06-02 23:52:00,63.6,63.3,29.86,SE,145,0.0,1.0,99,0.00,,,0.06,Wunderground v.1.15,2013-06-03 03:52:00,
2013-06-02 23:57:00,63.9,63.6,29.86,NNW,335,0.0,5.0,99,0.00,,,0.06,Wunderground v.1.15,2013-06-03 03:57:00,